sensor_id;sensor_type;location;lat;lon;timestamp;P1;durP1;ratioP1;P2;durP2;ratioP2
20026;SDS011;10174;42.688;23.344;2022-12-07T00:00:39;58.15;;;24.15;;
20026;SDS011;10174;42.688;23.344;2022-12-07T00:03:04;66.82;;;26.15;;
20026;SDS011;10174;42.688;23.344;2022-12-07T00:05:30;62.80;;;24.77;;
20026;SDS011;10174;42.688;23.344;2022-12-07T00:07:55;60.83;;;24.02;;
20026;SDS011;10174;42.688;23.344;2022-12-07T00:10:21;61.80;;;23.20;;
20026;SDS011;10174;42.688;23.344;2022-12-07T00:12:46;60.25;;;23.08;;
20026;SDS011;10174;42.688;23.344;2022-12-07T00:15:11;57.75;;;23.13;;
20026;SDS011;10174;42.688;23.344;2022-12-07T00:17:37;55.90;;;22.90;;
20026;SDS011;10174;42.688;23.344;2022-12-07T00:20:02;61.20;;;23.73;;
20026;SDS011;10174;42.688;23.344;2022-12-07T00:22:28;55.05;;;22.15;;
20026;SDS011;10174;42.688;23.344;2022-12-07T00:24:53;59.22;;;23.25;;
20026;SDS011;10174;42.688;23.344;2022-12-07T00:27:18;57.08;;;23.35;;
20026;SDS011;10174;42.688;23.344;2022-12-07T00:29:44;62.47;;;24.10;;
20026;SDS011;10174;42.688;23.344;2022-12-07T00:32:09;66.95;;;23.35;;
20026;SDS011;10174;42.688;23.344;2022-12-07T00:34:34;58.70;;;22.60;;
20026;SDS011;10174;42.688;23.344;2022-12-07T00:37:00;58.65;;;22.85;;
20026;SDS011;10174;42.688;23.344;2022-12-07T00:39:25;55.67;;;22.90;;
20026;SDS011;10174;42.688;23.344;2022-12-07T00:41:50;60.55;;;22.63;;
20026;SDS011;10174;42.688;23.344;2022-12-07T00:44:16;55.42;;;24.23;;
20026;SDS011;10174;42.688;23.344;2022-12-07T00:46:41;63.83;;;24.35;;
20026;SDS011;10174;42.688;23.344;2022-12-07T00:49:07;56.47;;;22.38;;
20026;SDS011;10174;42.688;23.344;2022-12-07T00:51:32;60.88;;;22.92;;
20026;SDS011;10174;42.688;23.344;2022-12-07T00:53:57;61.75;;;23.35;;
20026;SDS011;10174;42.688;23.344;2022-12-07T00:56:24;65.13;;;24.85;;
20026;SDS011;10174;42.688;23.344;2022-12-07T00:58:55;57.03;;;23.33;;
20026;SDS011;10174;42.688;23.344;2022-12-07T01:01:22;57.50;;;22.05;;
20026;SDS011;10174;42.688;23.344;2022-12-07T01:03:48;61.67;;;23.35;;
20026;SDS011;10174;42.688;23.344;2022-12-07T01:06:15;51.30;;;21.50;;
20026;SDS011;10174;42.688;23.344;2022-12-07T01:08:42;53.80;;;22.58;;
20026;SDS011;10174;42.688;23.344;2022-12-07T01:11:08;60.65;;;23.23;;
20026;SDS011;10174;42.688;23.344;2022-12-07T01:13:36;62.50;;;23.55;;
20026;SDS011;10174;42.688;23.344;2022-12-07T01:16:03;58.20;;;22.48;;
20026;SDS011;10174;42.688;23.344;2022-12-07T01:18:31;61.10;;;23.00;;
20026;SDS011;10174;42.688;23.344;2022-12-07T01:21:02;55.47;;;23.25;;
20026;SDS011;10174;42.688;23.344;2022-12-07T01:23:30;55.40;;;23.65;;
20026;SDS011;10174;42.688;23.344;2022-12-07T01:25:57;58.63;;;23.02;;
20026;SDS011;10174;42.688;23.344;2022-12-07T01:28:24;55.08;;;23.25;;
20026;SDS011;10174;42.688;23.344;2022-12-07T01:30:57;62.17;;;22.80;;
20026;SDS011;10174;42.688;23.344;2022-12-07T01:33:22;57.38;;;23.17;;
20026;SDS011;10174;42.688;23.344;2022-12-07T01:35:48;56.72;;;23.10;;
20026;SDS011;10174;42.688;23.344;2022-12-07T01:38:13;56.03;;;23.15;;
20026;SDS011;10174;42.688;23.344;2022-12-07T01:40:39;53.60;;;22.92;;
20026;SDS011;10174;42.688;23.344;2022-12-07T01:43:09;60.42;;;23.45;;
20026;SDS011;10174;42.688;23.344;2022-12-07T01:45:41;60.08;;;22.67;;
20026;SDS011;10174;42.688;23.344;2022-12-07T01:48:07;56.40;;;23.02;;
20026;SDS011;10174;42.688;23.344;2022-12-07T01:50:36;63.63;;;22.90;;
20026;SDS011;10174;42.688;23.344;2022-12-07T01:53:04;56.35;;;23.40;;
20026;SDS011;10174;42.688;23.344;2022-12-07T01:55:31;59.55;;;24.15;;
20026;SDS011;10174;42.688;23.344;2022-12-07T01:57:58;58.45;;;23.10;;
20026;SDS011;10174;42.688;23.344;2022-12-07T02:00:23;65.38;;;23.88;;
20026;SDS011;10174;42.688;23.344;2022-12-07T02:03:09;59.38;;;23.80;;
20026;SDS011;10174;42.688;23.344;2022-12-07T02:05:40;56.90;;;22.55;;
20026;SDS011;10174;42.688;23.344;2022-12-07T02:08:06;55.55;;;22.05;;
20026;SDS011;10174;42.688;23.344;2022-12-07T02:10:32;62.88;;;24.08;;
20026;SDS011;10174;42.688;23.344;2022-12-07T02:12:59;62.42;;;23.23;;
20026;SDS011;10174;42.688;23.344;2022-12-07T02:15:35;62.13;;;23.25;;
20026;SDS011;10174;42.688;23.344;2022-12-07T02:18:16;64.80;;;23.58;;
20026;SDS011;10174;42.688;23.344;2022-12-07T02:20:51;63.47;;;23.50;;
20026;SDS011;10174;42.688;23.344;2022-12-07T02:28:33;54.70;;;22.58;;
20026;SDS011;10174;42.688;23.344;2022-12-07T02:31:11;55.30;;;22.25;;
20026;SDS011;10174;42.688;23.344;2022-12-07T02:33:46;54.83;;;22.48;;
20026;SDS011;10174;42.688;23.344;2022-12-07T02:36:25;57.03;;;23.67;;
20026;SDS011;10174;42.688;23.344;2022-12-07T02:41:20;64.25;;;23.73;;
20026;SDS011;10174;42.688;23.344;2022-12-07T02:43:52;66.07;;;23.33;;
20026;SDS011;10174;42.688;23.344;2022-12-07T02:46:21;56.38;;;22.63;;
20026;SDS011;10174;42.688;23.344;2022-12-07T02:48:51;49.53;;;21.92;;
20026;SDS011;10174;42.688;23.344;2022-12-07T02:51:18;57.10;;;22.45;;
20026;SDS011;10174;42.688;23.344;2022-12-07T02:53:44;60.83;;;23.67;;
20026;SDS011;10174;42.688;23.344;2022-12-07T03:04:26;56.78;;;23.77;;
20026;SDS011;10174;42.688;23.344;2022-12-07T03:12:30;70.15;;;25.48;;
20026;SDS011;10174;42.688;23.344;2022-12-07T03:15:05;59.08;;;24.88;;
20026;SDS011;10174;42.688;23.344;2022-12-07T03:17:38;69.68;;;24.40;;
20026;SDS011;10174;42.688;23.344;2022-12-07T03:20:07;65.07;;;24.80;;
20026;SDS011;10174;42.688;23.344;2022-12-07T03:22:34;67.07;;;25.25;;
20026;SDS011;10174;42.688;23.344;2022-12-07T03:25:06;61.58;;;25.20;;
20026;SDS011;10174;42.688;23.344;2022-12-07T03:30:08;69.82;;;24.60;;
20026;SDS011;10174;42.688;23.344;2022-12-07T03:32:45;65.00;;;24.98;;
20026;SDS011;10174;42.688;23.344;2022-12-07T03:40:22;63.20;;;23.85;;
20026;SDS011;10174;42.688;23.344;2022-12-07T03:42:54;73.38;;;26.77;;
20026;SDS011;10174;42.688;23.344;2022-12-07T03:45:22;62.05;;;25.20;;
20026;SDS011;10174;42.688;23.344;2022-12-07T03:47:57;74.32;;;26.35;;
20026;SDS011;10174;42.688;23.344;2022-12-07T03:50:54;65.90;;;25.00;;
20026;SDS011;10174;42.688;23.344;2022-12-07T03:53:30;81.22;;;26.30;;
20026;SDS011;10174;42.688;23.344;2022-12-07T03:56:04;71.63;;;25.73;;
20026;SDS011;10174;42.688;23.344;2022-12-07T03:58:31;69.75;;;27.88;;
20026;SDS011;10174;42.688;23.344;2022-12-07T04:00:59;67.00;;;27.73;;
20026;SDS011;10174;42.688;23.344;2022-12-07T04:03:24;67.55;;;26.42;;
20026;SDS011;10174;42.688;23.344;2022-12-07T04:05:50;70.50;;;27.05;;
20026;SDS011;10174;42.688;23.344;2022-12-07T04:08:15;77.03;;;28.80;;
20026;SDS011;10174;42.688;23.344;2022-12-07T04:10:40;77.75;;;28.00;;
20026;SDS011;10174;42.688;23.344;2022-12-07T04:13:06;72.72;;;27.77;;
20026;SDS011;10174;42.688;23.344;2022-12-07T04:15:31;79.63;;;27.52;;
20026;SDS011;10174;42.688;23.344;2022-12-07T04:17:57;75.57;;;28.33;;
20026;SDS011;10174;42.688;23.344;2022-12-07T04:20:22;69.70;;;27.38;;
20026;SDS011;10174;42.688;23.344;2022-12-07T04:22:47;76.50;;;27.63;;
20026;SDS011;10174;42.688;23.344;2022-12-07T04:25:13;75.35;;;28.65;;
20026;SDS011;10174;42.688;23.344;2022-12-07T04:27:38;75.32;;;26.50;;
20026;SDS011;10174;42.688;23.344;2022-12-07T04:30:04;70.55;;;27.52;;
20026;SDS011;10174;42.688;23.344;2022-12-07T04:32:30;68.30;;;28.35;;
20026;SDS011;10174;42.688;23.344;2022-12-07T04:34:55;71.25;;;28.25;;
20026;SDS011;10174;42.688;23.344;2022-12-07T04:37:21;68.70;;;26.75;;
20026;SDS011;10174;42.688;23.344;2022-12-07T04:39:46;76.20;;;26.73;;
20026;SDS011;10174;42.688;23.344;2022-12-07T04:42:12;81.53;;;28.70;;
20026;SDS011;10174;42.688;23.344;2022-12-07T04:44:40;72.78;;;28.35;;
20026;SDS011;10174;42.688;23.344;2022-12-07T04:47:05;85.22;;;28.63;;
20026;SDS011;10174;42.688;23.344;2022-12-07T04:49:31;71.60;;;28.13;;
20026;SDS011;10174;42.688;23.344;2022-12-07T04:51:57;85.85;;;31.52;;
20026;SDS011;10174;42.688;23.344;2022-12-07T04:54:22;80.28;;;29.85;;
20026;SDS011;10174;42.688;23.344;2022-12-07T04:56:47;89.80;;;31.40;;
20026;SDS011;10174;42.688;23.344;2022-12-07T04:59:13;103.05;;;32.33;;
20026;SDS011;10174;42.688;23.344;2022-12-07T05:01:40;82.43;;;30.70;;
20026;SDS011;10174;42.688;23.344;2022-12-07T05:04:06;91.90;;;31.40;;
20026;SDS011;10174;42.688;23.344;2022-12-07T05:06:32;88.03;;;31.98;;
20026;SDS011;10174;42.688;23.344;2022-12-07T05:08:57;84.32;;;30.63;;
20026;SDS011;10174;42.688;23.344;2022-12-07T05:11:23;89.05;;;32.38;;
20026;SDS011;10174;42.688;23.344;2022-12-07T05:14:04;81.35;;;30.55;;
20026;SDS011;10174;42.688;23.344;2022-12-07T05:16:34;83.95;;;29.00;;
20026;SDS011;10174;42.688;23.344;2022-12-07T05:19:00;99.22;;;30.63;;
20026;SDS011;10174;42.688;23.344;2022-12-07T05:21:25;90.65;;;30.92;;
20026;SDS011;10174;42.688;23.344;2022-12-07T05:23:51;91.88;;;31.00;;
20026;SDS011;10174;42.688;23.344;2022-12-07T05:26:16;87.63;;;29.75;;
20026;SDS011;10174;42.688;23.344;2022-12-07T05:28:42;94.13;;;30.30;;
20026;SDS011;10174;42.688;23.344;2022-12-07T05:31:07;87.03;;;29.23;;
20026;SDS011;10174;42.688;23.344;2022-12-07T05:33:33;80.93;;;29.77;;
20026;SDS011;10174;42.688;23.344;2022-12-07T05:35:58;85.88;;;29.95;;
20026;SDS011;10174;42.688;23.344;2022-12-07T05:38:24;87.50;;;30.70;;
20026;SDS011;10174;42.688;23.344;2022-12-07T05:40:50;84.05;;;28.75;;
20026;SDS011;10174;42.688;23.344;2022-12-07T05:43:15;87.28;;;30.48;;
20026;SDS011;10174;42.688;23.344;2022-12-07T05:45:41;102.05;;;29.02;;
20026;SDS011;10174;42.688;23.344;2022-12-07T05:48:06;107.32;;;31.58;;
20026;SDS011;10174;42.688;23.344;2022-12-07T05:50:31;89.95;;;30.77;;
20026;SDS011;10174;42.688;23.344;2022-12-07T05:52:57;90.00;;;32.15;;
20026;SDS011;10174;42.688;23.344;2022-12-07T05:55:22;131.70;;;37.38;;
20026;SDS011;10174;42.688;23.344;2022-12-07T05:57:48;93.13;;;32.63;;
20026;SDS011;10174;42.688;23.344;2022-12-07T06:00:32;87.07;;;31.77;;
20026;SDS011;10174;42.688;23.344;2022-12-07T06:02:57;93.47;;;33.70;;
20026;SDS011;10174;42.688;23.344;2022-12-07T06:05:23;89.28;;;30.73;;
20026;SDS011;10174;42.688;23.344;2022-12-07T06:07:48;88.45;;;31.83;;
20026;SDS011;10174;42.688;23.344;2022-12-07T06:10:14;89.25;;;32.92;;
20026;SDS011;10174;42.688;23.344;2022-12-07T06:12:39;95.22;;;33.92;;
20026;SDS011;10174;42.688;23.344;2022-12-07T06:15:07;122.05;;;43.40;;
20026;SDS011;10174;42.688;23.344;2022-12-07T06:17:33;101.13;;;33.90;;
20026;SDS011;10174;42.688;23.344;2022-12-07T06:19:59;109.40;;;33.72;;
20026;SDS011;10174;42.688;23.344;2022-12-07T06:22:24;93.88;;;32.65;;
20026;SDS011;10174;42.688;23.344;2022-12-07T06:24:50;95.63;;;32.80;;
20026;SDS011;10174;42.688;23.344;2022-12-07T06:27:15;94.25;;;31.70;;
20026;SDS011;10174;42.688;23.344;2022-12-07T06:29:40;91.35;;;31.40;;
20026;SDS011;10174;42.688;23.344;2022-12-07T06:32:06;94.82;;;32.28;;
20026;SDS011;10174;42.688;23.344;2022-12-07T06:34:31;91.35;;;32.95;;
20026;SDS011;10174;42.688;23.344;2022-12-07T06:36:57;96.60;;;33.92;;
20026;SDS011;10174;42.688;23.344;2022-12-07T06:39:23;97.88;;;36.83;;
20026;SDS011;10174;42.688;23.344;2022-12-07T06:41:50;93.78;;;31.98;;
20026;SDS011;10174;42.688;23.344;2022-12-07T06:44:19;110.63;;;34.35;;
20026;SDS011;10174;42.688;23.344;2022-12-07T06:46:45;92.88;;;33.92;;
20026;SDS011;10174;42.688;23.344;2022-12-07T06:49:11;94.18;;;32.97;;
20026;SDS011;10174;42.688;23.344;2022-12-07T06:51:36;93.80;;;33.47;;
20026;SDS011;10174;42.688;23.344;2022-12-07T06:54:06;98.63;;;33.78;;
20026;SDS011;10174;42.688;23.344;2022-12-07T06:56:40;90.72;;;31.40;;
20026;SDS011;10174;42.688;23.344;2022-12-07T06:59:06;92.80;;;34.92;;
20026;SDS011;10174;42.688;23.344;2022-12-07T07:01:32;82.60;;;31.70;;
20026;SDS011;10174;42.688;23.344;2022-12-07T07:03:59;89.75;;;31.92;;
20026;SDS011;10174;42.688;23.344;2022-12-07T07:06:25;81.63;;;31.02;;
20026;SDS011;10174;42.688;23.344;2022-12-07T07:08:50;87.60;;;31.45;;
20026;SDS011;10174;42.688;23.344;2022-12-07T07:11:16;89.47;;;31.63;;
20026;SDS011;10174;42.688;23.344;2022-12-07T07:13:42;93.22;;;36.42;;
20026;SDS011;10174;42.688;23.344;2022-12-07T07:16:07;81.15;;;31.98;;
20026;SDS011;10174;42.688;23.344;2022-12-07T07:18:33;90.35;;;31.38;;
20026;SDS011;10174;42.688;23.344;2022-12-07T07:20:59;90.22;;;30.90;;
20026;SDS011;10174;42.688;23.344;2022-12-07T07:23:25;89.32;;;30.50;;
20026;SDS011;10174;42.688;23.344;2022-12-07T07:25:51;88.68;;;30.77;;
20026;SDS011;10174;42.688;23.344;2022-12-07T07:28:16;87.45;;;30.17;;
20026;SDS011;10174;42.688;23.344;2022-12-07T07:30:42;79.63;;;30.63;;
20026;SDS011;10174;42.688;23.344;2022-12-07T07:33:07;128.63;;;34.67;;
20026;SDS011;10174;42.688;23.344;2022-12-07T07:35:34;116.63;;;33.88;;
20026;SDS011;10174;42.688;23.344;2022-12-07T07:38:00;106.00;;;41.85;;
20026;SDS011;10174;42.688;23.344;2022-12-07T07:40:27;115.93;;;44.92;;
20026;SDS011;10174;42.688;23.344;2022-12-07T07:42:54;125.05;;;46.05;;
20026;SDS011;10174;42.688;23.344;2022-12-07T07:45:20;125.82;;;50.85;;
20026;SDS011;10174;42.688;23.344;2022-12-07T07:47:47;118.65;;;46.60;;
20026;SDS011;10174;42.688;23.344;2022-12-07T07:50:13;118.40;;;46.63;;
20026;SDS011;10174;42.688;23.344;2022-12-07T07:52:39;117.63;;;48.15;;
20026;SDS011;10174;42.688;23.344;2022-12-07T07:55:04;119.85;;;46.88;;
20026;SDS011;10174;42.688;23.344;2022-12-07T07:57:30;102.47;;;42.97;;
20026;SDS011;10174;42.688;23.344;2022-12-07T07:59:56;107.03;;;37.88;;
20026;SDS011;10174;42.688;23.344;2022-12-07T08:02:22;83.65;;;35.65;;
20026;SDS011;10174;42.688;23.344;2022-12-07T08:04:48;102.18;;;40.63;;
20026;SDS011;10174;42.688;23.344;2022-12-07T08:07:14;97.22;;;39.78;;
20026;SDS011;10174;42.688;23.344;2022-12-07T08:09:40;105.03;;;39.55;;
20026;SDS011;10174;42.688;23.344;2022-12-07T08:12:06;105.80;;;39.58;;
20026;SDS011;10174;42.688;23.344;2022-12-07T08:14:32;96.10;;;40.70;;
20026;SDS011;10174;42.688;23.344;2022-12-07T08:16:59;97.65;;;38.85;;
20026;SDS011;10174;42.688;23.344;2022-12-07T08:19:24;125.85;;;39.00;;
20026;SDS011;10174;42.688;23.344;2022-12-07T08:21:50;93.95;;;37.70;;
20026;SDS011;10174;42.688;23.344;2022-12-07T08:24:15;89.25;;;37.83;;
20026;SDS011;10174;42.688;23.344;2022-12-07T08:26:41;99.38;;;39.17;;
20026;SDS011;10174;42.688;23.344;2022-12-07T08:29:07;81.15;;;36.15;;
20026;SDS011;10174;42.688;23.344;2022-12-07T08:31:32;104.30;;;38.05;;
20026;SDS011;10174;42.688;23.344;2022-12-07T08:33:58;94.45;;;39.97;;
20026;SDS011;10174;42.688;23.344;2022-12-07T08:36:24;104.15;;;40.45;;
20026;SDS011;10174;42.688;23.344;2022-12-07T08:38:49;96.25;;;40.05;;
20026;SDS011;10174;42.688;23.344;2022-12-07T08:41:15;103.85;;;38.83;;
20026;SDS011;10174;42.688;23.344;2022-12-07T08:43:40;98.22;;;37.50;;
20026;SDS011;10174;42.688;23.344;2022-12-07T08:46:10;133.68;;;46.53;;
20026;SDS011;10174;42.688;23.344;2022-12-07T08:49:01;111.95;;;42.17;;
20026;SDS011;10174;42.688;23.344;2022-12-07T08:51:29;114.53;;;40.85;;
20026;SDS011;10174;42.688;23.344;2022-12-07T08:53:55;111.10;;;40.55;;
20026;SDS011;10174;42.688;23.344;2022-12-07T08:56:23;102.30;;;40.78;;
20026;SDS011;10174;42.688;23.344;2022-12-07T08:58:49;116.65;;;43.30;;
20026;SDS011;10174;42.688;23.344;2022-12-07T09:01:15;112.93;;;41.88;;
20026;SDS011;10174;42.688;23.344;2022-12-07T09:03:40;106.72;;;41.25;;
20026;SDS011;10174;42.688;23.344;2022-12-07T09:06:06;105.53;;;38.45;;
20026;SDS011;10174;42.688;23.344;2022-12-07T09:08:39;104.55;;;40.97;;
20026;SDS011;10174;42.688;23.344;2022-12-07T09:11:09;106.32;;;39.83;;
20026;SDS011;10174;42.688;23.344;2022-12-07T09:13:34;110.03;;;41.05;;
20026;SDS011;10174;42.688;23.344;2022-12-07T09:16:00;100.75;;;38.05;;
20026;SDS011;10174;42.688;23.344;2022-12-07T09:18:25;93.45;;;37.47;;
20026;SDS011;10174;42.688;23.344;2022-12-07T09:20:51;92.35;;;37.45;;
20026;SDS011;10174;42.688;23.344;2022-12-07T09:23:16;136.15;;;40.28;;
20026;SDS011;10174;42.688;23.344;2022-12-07T09:25:42;96.38;;;37.65;;
20026;SDS011;10174;42.688;23.344;2022-12-07T09:28:08;82.35;;;35.70;;
20026;SDS011;10174;42.688;23.344;2022-12-07T09:30:33;89.07;;;36.78;;
20026;SDS011;10174;42.688;23.344;2022-12-07T09:32:59;101.57;;;38.78;;
20026;SDS011;10174;42.688;23.344;2022-12-07T09:35:24;104.28;;;38.97;;
20026;SDS011;10174;42.688;23.344;2022-12-07T09:37:50;94.55;;;39.28;;
20026;SDS011;10174;42.688;23.344;2022-12-07T09:40:16;100.97;;;38.85;;
20026;SDS011;10174;42.688;23.344;2022-12-07T09:42:45;121.07;;;42.35;;
20026;SDS011;10174;42.688;23.344;2022-12-07T09:45:16;109.30;;;42.03;;
20026;SDS011;10174;42.688;23.344;2022-12-07T09:47:57;99.80;;;40.10;;
20026;SDS011;10174;42.688;23.344;2022-12-07T09:50:27;100.38;;;39.97;;
20026;SDS011;10174;42.688;23.344;2022-12-07T09:52:54;100.50;;;41.50;;
20026;SDS011;10174;42.688;23.344;2022-12-07T09:55:33;116.05;;;43.13;;
20026;SDS011;10174;42.688;23.344;2022-12-07T09:58:00;169.90;;;44.53;;
20026;SDS011;10174;42.688;23.344;2022-12-07T10:00:26;113.32;;;45.90;;
20026;SDS011;10174;42.688;23.344;2022-12-07T10:02:56;113.35;;;43.00;;
20026;SDS011;10174;42.688;23.344;2022-12-07T10:05:33;101.07;;;40.97;;
20026;SDS011;10174;42.688;23.344;2022-12-07T10:08:03;114.45;;;45.65;;
20026;SDS011;10174;42.688;23.344;2022-12-07T10:10:30;122.00;;;44.33;;
20026;SDS011;10174;42.688;23.344;2022-12-07T10:15:39;118.38;;;41.10;;
20026;SDS011;10174;42.688;23.344;2022-12-07T10:18:43;107.30;;;40.13;;
20026;SDS011;10174;42.688;23.344;2022-12-07T10:21:13;93.03;;;39.78;;
20026;SDS011;10174;42.688;23.344;2022-12-07T10:24:03;107.85;;;38.72;;
20026;SDS011;10174;42.688;23.344;2022-12-07T10:29:14;137.25;;;39.15;;
20026;SDS011;10174;42.688;23.344;2022-12-07T10:31:45;85.03;;;36.92;;
20026;SDS011;10174;42.688;23.344;2022-12-07T10:34:21;85.70;;;36.90;;
20026;SDS011;10174;42.688;23.344;2022-12-07T10:36:52;84.72;;;34.50;;
20026;SDS011;10174;42.688;23.344;2022-12-07T10:39:21;206.40;;;41.70;;
20026;SDS011;10174;42.688;23.344;2022-12-07T10:44:27;86.95;;;32.95;;
20026;SDS011;10174;42.688;23.344;2022-12-07T10:55:12;73.93;;;29.00;;
20026;SDS011;10174;42.688;23.344;2022-12-07T10:57:47;72.65;;;29.92;;
20026;SDS011;10174;42.688;23.344;2022-12-07T11:00:37;71.45;;;28.95;;
20026;SDS011;10174;42.688;23.344;2022-12-07T11:30:48;64.00;;;26.42;;
20026;SDS011;10174;42.688;23.344;2022-12-07T11:33:19;60.13;;;25.10;;
20026;SDS011;10174;42.688;23.344;2022-12-07T11:38:55;62.47;;;24.73;;
20026;SDS011;10174;42.688;23.344;2022-12-07T11:41:23;56.28;;;23.73;;
20026;SDS011;10174;42.688;23.344;2022-12-07T11:43:54;95.90;;;25.25;;
20026;SDS011;10174;42.688;23.344;2022-12-07T11:46:22;68.93;;;25.58;;
20026;SDS011;10174;42.688;23.344;2022-12-07T11:48:55;66.93;;;26.75;;
20026;SDS011;10174;42.688;23.344;2022-12-07T11:51:27;57.88;;;23.25;;
20026;SDS011;10174;42.688;23.344;2022-12-07T11:54:01;143.77;;;26.55;;
20026;SDS011;10174;42.688;23.344;2022-12-07T11:56:36;55.40;;;21.70;;
20026;SDS011;10174;42.688;23.344;2022-12-07T12:01:42;48.85;;;20.92;;
20026;SDS011;10174;42.688;23.344;2022-12-07T12:04:23;100.32;;;23.90;;
20026;SDS011;10174;42.688;23.344;2022-12-07T12:06:54;75.72;;;23.88;;
20026;SDS011;10174;42.688;23.344;2022-12-07T12:09:29;47.60;;;20.17;;
20026;SDS011;10174;42.688;23.344;2022-12-07T12:15:03;47.10;;;19.38;;
20026;SDS011;10174;42.688;23.344;2022-12-07T12:25:36;49.95;;;20.13;;
20026;SDS011;10174;42.688;23.344;2022-12-07T12:28:28;59.05;;;22.27;;
20026;SDS011;10174;42.688;23.344;2022-12-07T12:31:14;91.47;;;22.27;;
20026;SDS011;10174;42.688;23.344;2022-12-07T12:33:44;153.93;;;22.63;;
20026;SDS011;10174;42.688;23.344;2022-12-07T12:54:19;61.03;;;21.20;;
20026;SDS011;10174;42.688;23.344;2022-12-07T12:57:00;65.30;;;20.70;;
20026;SDS011;10174;42.688;23.344;2022-12-07T12:59:30;54.70;;;25.38;;
20026;SDS011;10174;42.688;23.344;2022-12-07T13:05:00;103.22;;;24.17;;
20026;SDS011;10174;42.688;23.344;2022-12-07T13:15:40;61.97;;;24.88;;
20026;SDS011;10174;42.688;23.344;2022-12-07T13:20:57;98.13;;;27.80;;
20026;SDS011;10174;42.688;23.344;2022-12-07T13:26:00;76.68;;;24.00;;
20026;SDS011;10174;42.688;23.344;2022-12-07T13:28:37;54.45;;;24.52;;
20026;SDS011;10174;42.688;23.344;2022-12-07T13:33:56;53.65;;;22.73;;
20026;SDS011;10174;42.688;23.344;2022-12-07T13:36:26;52.03;;;20.88;;
20026;SDS011;10174;42.688;23.344;2022-12-07T13:39:00;58.88;;;23.23;;
20026;SDS011;10174;42.688;23.344;2022-12-07T13:41:41;43.67;;;20.50;;
20026;SDS011;10174;42.688;23.344;2022-12-07T13:44:11;54.00;;;19.60;;
20026;SDS011;10174;42.688;23.344;2022-12-07T13:49:24;48.35;;;18.98;;
20026;SDS011;10174;42.688;23.344;2022-12-07T13:51:51;57.08;;;19.33;;
20026;SDS011;10174;42.688;23.344;2022-12-07T13:54:18;124.63;;;22.05;;
20026;SDS011;10174;42.688;23.344;2022-12-07T13:56:46;69.22;;;19.48;;
20026;SDS011;10174;42.688;23.344;2022-12-07T13:59:19;74.32;;;19.77;;
20026;SDS011;10174;42.688;23.344;2022-12-07T14:01:49;54.60;;;18.38;;
20026;SDS011;10174;42.688;23.344;2022-12-07T14:04:35;52.58;;;16.52;;
20026;SDS011;10174;42.688;23.344;2022-12-07T14:07:18;66.68;;;18.42;;
20026;SDS011;10174;42.688;23.344;2022-12-07T14:10:00;118.35;;;22.40;;
20026;SDS011;10174;42.688;23.344;2022-12-07T14:12:30;108.57;;;21.10;;
20026;SDS011;10174;42.688;23.344;2022-12-07T14:14:58;74.88;;;19.85;;
20026;SDS011;10174;42.688;23.344;2022-12-07T14:17:26;48.17;;;17.80;;
20026;SDS011;10174;42.688;23.344;2022-12-07T14:19:55;49.80;;;18.23;;
20026;SDS011;10174;42.688;23.344;2022-12-07T14:22:23;49.08;;;17.52;;
20026;SDS011;10174;42.688;23.344;2022-12-07T14:24:49;92.40;;;24.60;;
20026;SDS011;10174;42.688;23.344;2022-12-07T14:27:21;56.08;;;18.25;;
20026;SDS011;10174;42.688;23.344;2022-12-07T14:29:50;53.15;;;19.13;;
20026;SDS011;10174;42.688;23.344;2022-12-07T14:32:26;45.35;;;18.13;;
20026;SDS011;10174;42.688;23.344;2022-12-07T14:34:54;48.88;;;18.73;;
20026;SDS011;10174;42.688;23.344;2022-12-07T14:37:32;48.95;;;18.58;;
20026;SDS011;10174;42.688;23.344;2022-12-07T14:39:58;46.33;;;17.45;;
20026;SDS011;10174;42.688;23.344;2022-12-07T14:42:24;52.08;;;18.58;;
20026;SDS011;10174;42.688;23.344;2022-12-07T14:44:52;46.95;;;16.90;;
20026;SDS011;10174;42.688;23.344;2022-12-07T14:47:18;49.28;;;16.77;;
20026;SDS011;10174;42.688;23.344;2022-12-07T14:49:43;44.92;;;17.45;;
20026;SDS011;10174;42.688;23.344;2022-12-07T14:52:11;53.28;;;18.17;;
20026;SDS011;10174;42.688;23.344;2022-12-07T14:54:41;51.92;;;17.95;;
20026;SDS011;10174;42.688;23.344;2022-12-07T14:57:07;54.22;;;18.02;;
20026;SDS011;10174;42.688;23.344;2022-12-07T14:59:35;48.78;;;19.20;;
20026;SDS011;10174;42.688;23.344;2022-12-07T15:02:00;49.33;;;18.23;;
20026;SDS011;10174;42.688;23.344;2022-12-07T15:04:25;67.43;;;21.52;;
20026;SDS011;10174;42.688;23.344;2022-12-07T15:06:58;66.10;;;19.48;;
20026;SDS011;10174;42.688;23.344;2022-12-07T15:09:25;58.38;;;19.55;;
20026;SDS011;10174;42.688;23.344;2022-12-07T15:11:51;61.45;;;20.23;;
20026;SDS011;10174;42.688;23.344;2022-12-07T15:14:16;71.13;;;21.13;;
20026;SDS011;10174;42.688;23.344;2022-12-07T15:16:42;66.68;;;23.85;;
20026;SDS011;10174;42.688;23.344;2022-12-07T15:19:12;58.30;;;18.40;;
20026;SDS011;10174;42.688;23.344;2022-12-07T15:21:42;58.65;;;18.65;;
20026;SDS011;10174;42.688;23.344;2022-12-07T15:24:09;70.80;;;20.90;;
20026;SDS011;10174;42.688;23.344;2022-12-07T15:26:37;57.97;;;19.95;;
20026;SDS011;10174;42.688;23.344;2022-12-07T15:29:03;71.03;;;21.25;;
20026;SDS011;10174;42.688;23.344;2022-12-07T15:31:29;83.45;;;23.00;;
20026;SDS011;10174;42.688;23.344;2022-12-07T15:33:54;55.45;;;21.17;;
20026;SDS011;10174;42.688;23.344;2022-12-07T15:36:21;65.90;;;23.15;;
20026;SDS011;10174;42.688;23.344;2022-12-07T15:38:49;73.15;;;21.55;;
20026;SDS011;10174;42.688;23.344;2022-12-07T15:41:16;80.28;;;22.83;;
20026;SDS011;10174;42.688;23.344;2022-12-07T15:43:42;90.70;;;22.15;;
20026;SDS011;10174;42.688;23.344;2022-12-07T15:46:33;60.85;;;21.30;;
20026;SDS011;10174;42.688;23.344;2022-12-07T15:49:04;97.88;;;24.63;;
20026;SDS011;10174;42.688;23.344;2022-12-07T15:51:34;71.43;;;24.25;;
20026;SDS011;10174;42.688;23.344;2022-12-07T15:53:59;76.40;;;23.95;;
20026;SDS011;10174;42.688;23.344;2022-12-07T15:56:25;89.28;;;24.95;;
20026;SDS011;10174;42.688;23.344;2022-12-07T15:58:50;86.18;;;25.48;;
20026;SDS011;10174;42.688;23.344;2022-12-07T16:01:16;83.78;;;23.38;;
20026;SDS011;10174;42.688;23.344;2022-12-07T16:03:43;79.38;;;24.60;;
20026;SDS011;10174;42.688;23.344;2022-12-07T16:06:10;92.18;;;24.42;;
20026;SDS011;10174;42.688;23.344;2022-12-07T16:08:35;85.75;;;27.50;;
20026;SDS011;10174;42.688;23.344;2022-12-07T16:11:04;97.22;;;25.15;;
20026;SDS011;10174;42.688;23.344;2022-12-07T16:13:33;75.68;;;25.23;;
20026;SDS011;10174;42.688;23.344;2022-12-07T16:16:02;108.28;;;27.02;;
20026;SDS011;10174;42.688;23.344;2022-12-07T16:18:32;75.45;;;25.33;;
20026;SDS011;10174;42.688;23.344;2022-12-07T16:20:57;78.32;;;24.65;;
20026;SDS011;10174;42.688;23.344;2022-12-07T16:23:23;85.35;;;23.95;;